Terminal Aerodrome Forecast
Issued by NWS Cleveland, OH

Home | Current Version | Previous Version | Graphics & Text | Print | Product List | Glossary On
Versions: 1 2 3 4 5 6 7 8 9 10 11 12 13 14 15 16 17 18 19 20 21 22 23 24 25 26 27 28 29 30 31
000
FTUS41 KCLE 221100
TAFCLE
TAF
KCLE 221120Z 2212/2318 30004KT P6SM OVC010
     FM221800 30006KT P6SM SCT010 OVC025
     FM230000 26006KT P6SM SCT025 OVC045
     FM230400 21004KT P6SM BKN025
     FM230600 21004KT 6SM BR OVC015
     FM231500 21008KT P6SM OVC020=

USA.gov is the U.S. government's official web portal to all federal, state and local government web resources and services.